Time;durP1;ratioP1;P1;durP2;ratioP2;P2;SDS_P1;SDS_P2;PMS_P1;PMS_P2;Temp;Humidity;BMP_temperature;BMP_pressure;BME280_temperature;BME280_humidity;BME280_pressure;Samples;Min_cycle;Max_cycle;Signal;HPM_P1;HPM_P2
2023/10/02 00:04:24;;;;;;;1999.90;999.90;;;;;;;18.37;100.00;101941.03;10377890;28;20065;-70
2023/10/02 00:09:27;;;;;;;1999.90;999.90;;;;;;;18.37;100.00;101950.78;10384078;28;20136;-69
2023/10/02 00:14:35;;;;;;;1999.90;999.90;;;;;;;18.32;100.00;101943.16;10419321;28;20425;-69
2023/10/02 00:19:44;;;;;;;1999.90;999.90;;;;;;;18.20;100.00;101944.03;10418702;28;20046;-69
2023/10/02 00:24:47;;;;;;;1999.90;999.90;;;;;;;18.41;100.00;101940.78;10402442;28;20080;-70
2023/10/02 00:29:57;;;;;;;1999.90;999.90;;;;;;;18.13;100.00;101933.03;10419311;28;20593;-69
2023/10/02 00:35:01;;;;;;;1999.90;999.90;;;;;;;18.20;100.00;101939.56;10402859;28;20094;-70
2023/10/02 00:40:06;;;;;;;1999.90;999.90;;;;;;;18.17;100.00;101939.81;10418446;28;20498;-70
2023/10/02 00:45:09;;;;;;;1999.90;999.90;;;;;;;18.07;100.00;101933.47;10418723;28;20092;-69
2023/10/02 00:50:17;;;;;;;1999.90;999.90;;;;;;;18.12;100.00;101933.13;10418420;28;20528;-69
2023/10/02 00:55:24;;;;;;;1999.90;999.90;;;;;;;18.09;100.00;101920.97;10418382;28;20458;-68
2023/10/02 01:00:35;;;;;;;1999.90;999.90;;;;;;;18.03;100.00;101920.56;10384554;28;20049;-69
2023/10/02 01:05:42;;;;;;;1999.90;999.90;;;;;;;18.05;100.00;101916.81;10401896;28;20047;-69
2023/10/02 01:10:46;;;;;;;1999.90;999.90;;;;;;;17.93;100.00;101918.53;10417313;28;20405;-69
2023/10/02 01:15:48;;;;;;;1999.90;999.90;;;;;;;18.03;100.00;101915.25;10400235;28;20046;-69
2023/10/02 01:20:53;;;;;;;1999.90;999.90;;;;;;;17.89;100.00;101914.44;10399423;28;20049;-69
2023/10/02 01:25:57;;;;;;;1999.90;999.90;;;;;;;17.95;100.00;101913.13;10399364;28;20181;-69
2023/10/02 01:31:31;;;;;;;1999.90;999.90;;;;;;;17.91;100.00;101922.28;10399245;28;20132;-69
2023/10/02 01:36:22;;;;;;;1999.90;999.90;;;;;;;17.88;100.00;101911.88;10416234;28;20383;-68
2023/10/02 01:41:26;;;;;;;1999.90;999.90;;;;;;;17.58;100.00;101913.88;10416067;28;20132;-69
2023/10/02 01:46:30;;;;;;;1999.90;999.90;;;;;;;17.78;100.00;101915.13;10398825;28;20049;-70
2023/10/02 01:51:35;;;;;;;1999.90;999.90;;;;;;;17.59;100.00;101912.09;10415655;28;20501;-69
2023/10/02 01:56:38;;;;;;;1999.90;999.90;;;;;;;17.56;100.00;101918.44;10398795;28;20053;-70
2023/10/02 02:01:46;;;;;;;1999.90;999.90;;;;;;;17.64;100.00;101918.75;10415967;28;20059;-69
2023/10/02 02:06:51;;;;;;;1999.90;999.90;;;;;;;17.57;100.00;101914.84;10398510;28;20049;-70
2023/10/02 02:17:11;;;;;;;1999.90;999.90;;;;;;;17.26;100.00;101914.31;10399474;28;20453;-69
2023/10/02 02:22:26;;;;;;;1999.90;999.90;;;;;;;17.01;100.00;101908.97;10398169;28;20049;-69
2023/10/02 02:27:29;;;;;;;1999.90;999.90;;;;;;;16.89;100.00;101908.00;10398515;28;20156;-69
2023/10/02 02:32:44;;;;;;;1999.90;999.90;;;;;;;16.81;100.00;101903.19;10414567;28;20054;-69
2023/10/02 02:37:50;;;;;;;1999.90;999.90;;;;;;;16.71;100.00;101904.75;10415331;28;20126;-69
2023/10/02 02:42:54;;;;;;;1999.90;999.90;;;;;;;16.79;100.00;101899.78;10421616;28;20050;-69
2023/10/02 02:48:03;;;;;;;1999.90;999.90;;;;;;;16.90;100.00;101902.59;10423420;28;20061;-69
2023/10/02 02:53:21;;;;;;;1999.90;999.90;;;;;;;16.36;100.00;101899.97;10405915;28;20075;-69
2023/10/02 02:58:25;;;;;;;1999.90;999.90;;;;;;;16.24;100.00;101896.31;10423087;28;20104;-69
2023/10/02 03:03:34;;;;;;;1999.90;999.90;;;;;;;15.96;100.00;101884.84;10405806;28;20049;-69
2023/10/02 03:08:41;;;;;;;1999.90;999.90;;;;;;;16.22;100.00;101887.63;10405473;28;20403;-69
2023/10/02 03:13:43;;;;;;;1999.90;999.90;;;;;;;16.20;100.00;101884.22;10404782;28;20465;-69
2023/10/02 03:18:49;;;;;;;1999.90;999.90;;;;;;;16.15;100.00;101878.41;10422221;28;20132;-69
2023/10/02 03:24:02;;;;;;;1999.90;999.90;;;;;;;15.92;100.00;101871.91;10422227;28;20052;-69
2023/10/02 03:29:21;;;;;;;1999.90;999.90;;;;;;;15.98;100.00;101874.19;10405727;28;20099;-69
2023/10/02 03:34:38;;;;;;;1999.90;999.90;;;;;;;15.95;100.00;101869.97;10389625;28;20045;-69
2023/10/02 03:39:52;;;;;;;1999.90;999.90;;;;;;;15.81;100.00;101871.75;10421730;28;20052;-69
2023/10/02 03:44:56;;;;;;;1999.90;999.90;;;;;;;15.73;100.00;101880.97;10405525;28;20132;-69
2023/10/02 03:50:03;;;;;;;1999.90;999.90;;;;;;;15.93;100.00;101877.09;10420825;28;20128;-69
2023/10/02 03:55:15;;;;;;;1999.90;999.90;;;;;;;15.66;100.00;101868.25;10403847;28;20041;-70
2023/10/02 04:00:25;;;;;;;1999.90;999.90;;;;;;;15.76;100.00;101874.69;10403701;28;20125;-70
2023/10/02 04:05:32;;;;;;;1999.90;999.90;;;;;;;15.71;100.00;101871.44;10404213;28;20045;-70
2023/10/02 04:10:51;;;;;;;1999.90;999.90;;;;;;;15.66;100.00;101865.59;10419950;28;20128;-70
2023/10/02 04:16:27;;;;;;;1999.90;999.90;;;;;;;15.82;100.00;101863.75;10420448;28;20050;-70
2023/10/02 04:21:24;;;;;;;1999.90;999.90;;;;;;;16.21;100.00;101851.59;10405020;28;20494;-70
2023/10/02 04:26:33;;;;;;;1999.90;999.90;;;;;;;16.62;100.00;101860.41;10419648;28;20084;-70
2023/10/02 04:31:36;;;;;;;1999.90;999.90;;;;;;;16.88;100.00;101856.06;10419407;28;20103;-70
2023/10/02 04:36:40;;;;;;;1999.90;999.90;;;;;;;16.87;100.00;101849.91;10419175;28;20505;-70
2023/10/02 04:42:09;;;;;;;1999.90;999.90;;;;;;;16.85;100.00;101843.03;10401272;28;20478;-70
2023/10/02 04:47:09;;;;;;;1999.90;999.90;;;;;;;16.92;100.00;101851.41;10418245;28;20129;-70
2023/10/02 04:52:14;;;;;;;1999.90;999.90;;;;;;;16.88;100.00;101859.53;10401566;28;20084;-70
2023/10/02 04:57:17;;;;;;;1999.90;999.90;;;;;;;16.94;100.00;101860.09;10418486;28;20045;-70
2023/10/02 05:02:23;;;;;;;1999.90;999.90;;;;;;;16.76;100.00;101859.47;10416922;28;20558;-70
2023/10/02 05:07:28;;;;;;;1999.90;999.90;;;;;;;16.91;100.00;101863.75;10418219;28;20065;-70
2023/10/02 05:12:31;;;;;;;1999.90;999.90;;;;;;;16.75;100.00;101860.44;10417327;28;20402;-70
2023/10/02 05:17:46;;;;;;;1999.90;999.90;;;;;;;16.81;100.00;101866.19;10416986;28;20582;-70
2023/10/02 05:22:58;;;;;;;1999.90;999.90;;;;;;;16.63;100.00;101843.59;10417443;28;20046;-70
2023/10/02 05:28:01;;;;;;;1999.90;999.90;;;;;;;16.34;100.00;101846.38;10417278;28;20140;-70
2023/10/02 05:33:07;;;;;;;1999.90;999.90;;;;;;;16.45;100.00;101845.66;10416916;28;20071;-71
2023/10/02 05:38:16;;;;;;;1999.90;999.90;;;;;;;16.18;100.00;101849.13;10416198;28;20049;-71
2023/10/02 05:43:21;;;;;;;1999.90;999.90;;;;;;;16.41;100.00;101860.00;10416767;28;20049;-71
2023/10/02 05:48:27;;;;;;;1999.90;999.90;;;;;;;16.39;100.00;101856.63;10416540;28;20060;-71
2023/10/02 05:53:34;;;;;;;1999.90;999.90;;;;;;;16.62;100.00;101870.97;10398340;28;20053;-71
2023/10/02 05:58:41;;;;;;;1999.90;999.90;;;;;;;16.62;100.00;101868.34;10416223;28;20084;-71
2023/10/02 06:03:56;;;;;;;1999.90;999.90;;;;;;;16.27;100.00;101875.00;10399133;28;20106;-71
2023/10/02 06:09:12;;;;;;;1999.90;999.90;;;;;;;15.97;100.00;101881.28;10399949;28;20059;-71
2023/10/02 06:14:15;;;;;;;1999.90;999.90;;;;;;;16.31;100.00;101867.69;10397680;28;20063;-71
2023/10/02 06:19:18;;;;;;;1999.90;999.90;;;;;;;16.59;100.00;101865.88;10414964;28;20053;-71
2023/10/02 06:24:27;;;;;;;1999.90;999.90;;;;;;;16.66;100.00;101875.97;10414816;28;20406;-71
2023/10/02 06:29:37;;;;;;;1999.90;999.90;;;;;;;16.71;100.00;101880.97;10399014;28;20057;-72
2023/10/02 06:34:43;;;;;;;1999.90;999.90;;;;;;;16.71;100.00;101897.66;10398683;28;20046;-71
2023/10/02 06:40:14;;;;;;;1999.90;999.90;;;;;;;16.94;100.00;101900.59;10381462;28;20072;-71
2023/10/02 06:45:20;;;;;;;1999.90;999.90;;;;;;;16.94;100.00;101897.13;10400659;28;20081;-71
2023/10/02 06:50:34;;;;;;;1999.90;999.90;;;;;;;17.30;100.00;101900.84;10398108;28;20053;-71
2023/10/02 06:55:37;;;;;;;1999.90;999.90;;;;;;;17.23;100.00;101890.72;10415218;28;20128;-71
2023/10/02 07:00:54;;;;;;;1999.90;999.90;;;;;;;17.51;100.00;101896.72;10414240;28;20054;-71
2023/10/02 07:05:57;;;;;;;1999.90;999.90;;;;;;;17.53;100.00;101900.13;10399676;28;20045;-71
2023/10/02 07:11:01;;;;;;;1999.90;999.90;;;;;;;17.57;100.00;101895.47;10414260;28;20088;-71
2023/10/02 07:16:05;;;;;;;1999.90;999.90;;;;;;;17.77;100.00;101889.63;10396555;28;20045;-71
2023/10/02 07:21:07;;;;;;;1999.90;999.90;;;;;;;18.11;100.00;101895.19;10414498;28;20053;-69
2023/10/02 07:26:15;;;;;;;1999.90;999.90;;;;;;;18.41;100.00;101882.47;10416844;28;20045;-69
2023/10/02 07:31:21;;;;;;;1999.90;999.90;;;;;;;18.73;100.00;101883.59;10421807;28;20092;-70
2023/10/02 07:36:26;;;;;;;1999.90;999.90;;;;;;;19.01;97.06;101884.16;10404041;28;20073;-72
2023/10/02 07:41:29;;;;;;;1999.90;999.90;;;;;;;19.48;99.07;101890.31;10422176;28;20053;-72
2023/10/02 07:46:32;;;;;;;1999.90;999.90;;;;;;;19.45;96.03;101879.06;10403230;28;20067;-71
2023/10/02 07:51:37;;;;;;;1999.90;999.90;;;;;;;20.03;95.90;101890.41;10387301;28;20133;-70
2023/10/02 07:56:41;;;;;;;1999.90;999.90;;;;;;;20.67;92.01;101883.50;10403250;28;20136;-70
2023/10/02 08:01:43;;;;;;;1999.90;999.90;;;;;;;21.26;89.53;101874.06;10403085;28;20060;-70
2023/10/02 08:06:48;;;;;;;1999.90;999.90;;;;;;;20.66;86.32;101868.53;10420416;28;20079;-70
2023/10/02 08:12:08;;;;;;;1999.90;999.90;;;;;;;20.97;88.30;101884.56;10419829;28;20064;-70
2023/10/02 08:17:21;;;;;;;1999.90;999.90;;;;;;;20.50;92.47;101884.03;10419694;28;20053;-70
2023/10/02 08:22:35;;;;;;;1999.90;999.90;;;;;;;20.19;96.39;101875.88;10419955;28;20057;-70
2023/10/02 08:27:39;;;;;;;1999.90;999.90;;;;;;;20.30;96.17;101878.50;10402745;28;20054;-70
2023/10/02 08:32:43;;;;;;;1999.90;999.90;;;;;;;20.77;94.46;101887.06;10401656;28;20045;-70
2023/10/02 08:37:46;;;;;;;1999.90;999.90;;;;;;;20.44;89.56;101889.84;10401063;28;20072;-70
2023/10/02 08:42:52;;;;;;;1999.90;999.90;;;;;;;20.61;89.69;101897.28;10385362;28;20446;-70
2023/10/02 08:47:55;;;;;;;1999.90;999.90;;;;;;;20.83;89.51;101907.03;10401356;28;20079;-70
2023/10/02 08:52:57;;;;;;;1999.90;999.90;;;;;;;21.43;86.76;101890.44;10401014;28;20095;-70
2023/10/02 08:58:15;;;;;;;1999.90;999.90;;;;;;;23.09;83.39;101883.59;10417643;28;20057;-70
2023/10/02 09:03:23;;;;;;;1999.90;999.90;;;;;;;23.18;78.28;101882.75;10402229;28;20410;-70
2023/10/02 09:08:26;;;;;;;1999.90;999.90;;;;;;;22.00;80.41;101877.47;10418035;28;20054;-70
2023/10/02 09:13:31;;;;;;;1999.90;999.90;;;;;;;22.07;83.37;101871.47;10417137;28;20103;-70
2023/10/02 09:19:07;;;;;;;1999.90;999.90;;;;;;;21.92;83.16;101878.16;10400656;28;20077;-70
2023/10/02 09:24:00;;;;;;;1999.90;999.90;;;;;;;22.19;83.80;101874.00;10402251;28;20465;-70
2023/10/02 09:29:06;;;;;;;1999.90;999.90;;;;;;;22.50;82.69;101882.78;10417275;28;20061;-70
2023/10/02 09:34:16;;;;;;;1999.90;999.90;;;;;;;22.44;81.30;101868.19;10400042;28;20128;-71
2023/10/02 09:39:38;;;;;;;1999.90;999.90;;;;;;;22.27;82.53;101869.69;10416800;28;20123;-70
2023/10/02 09:44:45;;;;;;;1999.90;999.90;;;;;;;22.40;83.17;101876.59;10416042;28;20067;-71
2023/10/02 09:50:26;;;;;;;1999.90;999.90;;;;;;;21.84;84.19;101873.53;10416018;28;20057;-71
2023/10/02 09:55:53;;;;;;;1999.90;999.90;;;;;;;22.80;83.85;101862.25;10383426;28;20088;-71
2023/10/02 10:06:28;;;;;;;1999.90;999.90;;;;;;;24.54;76.72;101850.88;10399253;28;20396;-71
2023/10/02 10:11:34;;;;;;;1999.90;999.90;;;;;;;25.02;73.72;101862.16;10398282;28;20136;-72
2023/10/02 10:16:38;;;;;;;1999.90;999.90;;;;;;;24.36;74.04;101852.72;10415757;28;20052;-71
2023/10/02 10:21:58;;;;;;;1999.90;999.90;;;;;;;25.54;68.96;101845.22;10398645;28;20049;-71
2023/10/02 10:27:02;;;;;;;1999.90;999.90;;;;;;;25.16;70.07;101842.81;10383664;28;20128;-71
2023/10/02 10:32:18;;;;;;;1999.90;999.90;;;;;;;26.66;66.24;101843.09;10414918;28;20458;-72
2023/10/02 10:37:56;;;;;;;1999.90;999.90;;;;;;;26.89;67.80;101837.88;10415440;28;20088;-72
2023/10/02 10:43:00;;;;;;;1999.90;999.90;;;;;;;26.41;67.91;101824.31;10326181;28;20054;-72
2023/10/02 10:48:02;;;;;;;1999.90;999.90;;;;;;;27.40;66.25;101819.63;10414478;28;20533;-72
2023/10/02 10:58:36;;;;;;;1999.90;999.90;;;;;;;26.74;65.31;101818.09;10415161;28;20053;-72
2023/10/02 11:03:38;;;;;;;1999.90;999.90;;;;;;;28.30;62.91;101820.94;10405128;28;20135;-72
2023/10/02 11:08:44;;;;;;;1999.90;999.90;;;;;;;27.77;64.55;101818.09;10421973;28;20053;-72
2023/10/02 11:13:51;;;;;;;1999.90;999.90;;;;;;;26.23;67.68;101810.22;10422253;28;20060;-72
2023/10/02 11:19:25;;;;;;;1999.90;999.90;;;;;;;26.25;69.63;101814.38;10405560;28;20080;-72
2023/10/02 11:24:27;;;;;;;1999.90;999.90;;;;;;;25.12;69.01;101805.81;10404368;22;20081;-72
2023/10/02 11:29:40;;;;;;;1999.90;999.90;;;;;;;24.99;70.37;101807.06;10322704;28;20076;-73
2023/10/02 11:34:44;;;;;;;1999.90;999.90;;;;;;;24.76;73.51;101806.72;10323846;28;20050;-73
2023/10/02 11:39:50;;;;;;;1999.90;999.90;;;;;;;24.90;73.64;101788.41;10339460;28;20054;-73
2023/10/02 11:44:54;;;;;;;1999.90;999.90;;;;;;;24.05;75.09;101797.75;10322797;28;20046;-73
2023/10/02 11:49:57;;;;;;;1999.90;999.90;;;;;;;24.65;74.89;101797.13;10339774;28;20054;-73
2023/10/02 11:55:00;;;;;;;1999.90;999.90;;;;;;;23.59;75.61;101799.59;10322239;28;20058;-73
2023/10/02 12:00:08;;;;;;;1999.90;999.90;;;;;;;23.81;77.74;101787.63;10306089;28;20058;-73
2023/10/02 12:05:11;;;;;;;1999.90;999.90;;;;;;;24.17;75.63;101795.69;10339243;28;20077;-72
2023/10/02 12:10:16;;;;;;;1999.90;999.90;;;;;;;24.14;76.94;101782.66;10338914;28;20133;-73
2023/10/02 12:15:19;;;;;;;1999.90;999.90;;;;;;;23.83;79.22;101779.50;10321782;28;20042;-73
2023/10/02 12:20:22;;;;;;;1999.90;999.90;;;;;;;23.63;78.53;101781.44;10321150;28;20051;-73
2023/10/02 12:25:25;;;;;;;1999.90;999.90;;;;;;;24.42;77.70;101778.00;10338063;28;20061;-73
2023/10/02 12:30:29;;;;;;;1999.90;999.90;;;;;;;24.58;77.03;101765.78;10320369;28;20050;-73
2023/10/02 12:35:36;;;;;;;1999.90;999.90;;;;;;;24.27;77.74;101767.03;10320259;28;20484;-73
2023/10/02 12:40:39;;;;;;;1999.90;999.90;;;;;;;24.51;77.40;101764.69;10320815;28;20054;-72
2023/10/02 12:45:43;;;;;;;1999.90;999.90;;;;;;;24.44;74.81;101746.59;10303757;28;20046;-73
2023/10/02 12:50:46;;;;;;;1999.90;999.90;;;;;;;24.98;75.33;101750.94;10336762;28;20491;-73
2023/10/02 12:55:49;;;;;;;1999.90;999.90;;;;;;;24.03;76.11;101734.72;10337158;28;20052;-72
2023/10/02 13:00:54;;;;;;;1999.90;999.90;;;;;;;24.02;77.81;101725.00;10337577;28;20050;-72
2023/10/02 13:05:59;;;;;;;1999.90;999.90;;;;;;;24.75;77.03;101723.91;10319098;28;20046;-73
2023/10/02 13:11:02;;;;;;;1999.90;999.90;;;;;;;24.81;77.76;101702.69;10319236;28;20046;-73
2023/10/02 13:16:05;;;;;;;1999.90;999.90;;;;;;;24.70;79.06;101710.16;10336315;28;20050;-73
2023/10/02 13:21:08;;;;;;;1999.90;999.90;;;;;;;24.94;77.89;101702.22;10318468;28;20400;-73
2023/10/02 13:26:11;;;;;;;1999.90;999.90;;;;;;;24.47;76.06;101705.28;10317548;28;20131;-73
2023/10/02 13:31:16;;;;;;;1999.90;999.90;;;;;;;25.01;75.63;101686.34;10318068;28;20477;-73
2023/10/02 13:36:22;;;;;;;1999.90;999.90;;;;;;;25.11;74.21;101688.91;10317995;28;20046;-73
2023/10/02 13:41:29;;;;;;;1999.90;999.90;;;;;;;24.51;78.94;101682.59;10318715;28;20046;-73
2023/10/02 13:46:34;;;;;;;1999.90;999.90;;;;;;;24.87;78.07;101662.88;10318080;28;20526;-73
2023/10/02 13:51:37;;;;;;;1999.90;999.90;;;;;;;25.16;78.64;101660.59;10318400;28;20057;-72
2023/10/02 13:56:40;;;;;;;1999.90;999.90;;;;;;;24.79;78.58;101655.63;10317652;28;20050;-72
2023/10/02 14:01:46;;;;;;;1999.90;999.90;;;;;;;24.93;77.34;101651.50;10334978;28;20078;-72
2023/10/02 14:06:49;;;;;;;1999.90;999.90;;;;;;;24.82;76.31;101644.59;10317312;28;20050;-72
2023/10/02 14:11:52;;;;;;;1999.90;999.90;;;;;;;24.56;84.90;101656.22;10334577;28;20104;-73
2023/10/02 14:16:54;;;;;;;1999.90;999.90;;;;;;;24.51;87.38;101636.22;10334397;28;20085;-73
2023/10/02 14:21:57;;;;;;;1999.90;999.90;;;;;;;24.28;87.56;101631.41;10334278;28;20054;-73
2023/10/02 14:26:59;;;;;;;1999.90;999.90;;;;;;;24.68;82.72;101613.94;10333393;28;20050;-73
2023/10/02 14:32:02;;;;;;;1999.90;999.90;;;;;;;25.44;77.88;101608.63;10333449;28;20471;-73
2023/10/02 14:37:05;;;;;;;1999.90;999.90;;;;;;;26.40;73.97;101607.84;10337969;28;20050;-73
2023/10/02 14:42:11;;;;;;;1999.90;999.90;;;;;;;25.15;76.15;101601.81;10325252;28;20081;-73
2023/10/02 14:47:15;;;;;;;1999.90;999.90;;;;;;;24.83;80.22;101590.88;10341576;28;20491;-73
2023/10/02 14:52:17;;;;;;;1999.90;999.90;;;;;;;24.79;81.39;101588.69;10341952;28;20054;-72
2023/10/02 14:57:22;;;;;;;1999.90;999.90;;;;;;;24.77;84.85;101588.00;10341718;28;20042;-72
2023/10/02 15:02:25;;;;;;;1999.90;999.90;;;;;;;26.53;75.88;101580.47;10340892;28;20406;-73
2023/10/02 15:07:29;;;;;;;1999.90;999.90;;;;;;;27.22;72.56;101569.84;10341239;28;20403;-74
2023/10/02 15:12:31;;;;;;;1999.90;999.90;;;;;;;27.61;68.87;101559.97;10340795;28;20117;-73
2023/10/02 15:17:33;;;;;;;1999.90;999.90;;;;;;;27.19;73.46;101556.75;10324191;28;20046;-73
2023/10/02 15:22:36;;;;;;;1999.90;999.90;;;;;;;27.29;69.07;101555.72;10340192;28;20415;-73
2023/10/02 15:27:39;;;;;;;1999.90;999.90;;;;;;;28.37;67.33;101545.56;10339895;28;20149;-73
2023/10/02 15:32:44;;;;;;;1999.90;999.90;;;;;;;24.32;84.92;101549.00;10323387;28;20061;-73
2023/10/02 15:37:49;;;;;;;1999.90;999.90;;;;;;;24.60;88.65;101546.97;10340186;28;20042;-73
2023/10/02 15:42:53;;;;;;;1999.90;999.90;;;;;;;23.62;96.16;101547.19;10323256;28;20057;-73
2023/10/02 15:47:57;;;;;;;1999.90;999.90;;;;;;;23.02;100.00;101537.97;10322144;28;20116;-73
2023/10/02 15:53:00;;;;;;;1999.90;999.90;;;;;;;22.95;100.00;101532.41;10340063;28;20093;-73
2023/10/02 15:58:02;;;;;;;1999.90;999.90;;;;;;;22.62;100.00;101533.88;10322705;28;20072;-73
2023/10/02 16:03:07;;;;;;;1999.90;999.90;;;;;;;22.13;100.00;101526.06;10322003;28;20133;-72
2023/10/02 16:08:10;;;;;;;1999.90;999.90;;;;;;;22.15;100.00;101525.91;10339201;28;20080;-73
2023/10/02 16:13:13;;;;;;;1999.90;999.90;;;;;;;21.83;100.00;101517.31;10338981;28;20058;-72
2023/10/02 16:18:16;;;;;;;1999.90;999.90;;;;;;;21.90;100.00;101514.91;10338046;28;20406;-72
2023/10/02 16:23:19;;;;;;;1999.90;999.90;;;;;;;21.67;100.00;101511.72;10321040;28;20389;-72
2023/10/02 16:28:21;;;;;;;1999.90;999.90;;;;;;;21.32;100.00;101513.16;10337531;28;20451;-72
2023/10/02 16:33:23;;;;;;;1999.90;999.90;;;;;;;21.12;100.00;101515.00;10320762;28;20065;-72
2023/10/02 16:38:26;;;;;;;1999.90;999.90;;;;;;;20.92;100.00;101506.97;10304146;28;20134;-72
2023/10/02 16:43:28;;;;;;;1999.90;999.90;;;;;;;20.75;100.00;101497.03;10320711;28;20046;-73
2023/10/02 16:48:31;;;;;;;1999.90;999.90;;;;;;;20.58;100.00;101491.34;10320428;28;20050;-72
2023/10/02 16:53:33;;;;;;;1999.90;999.90;;;;;;;20.41;100.00;101487.53;10320171;28;20046;-72
2023/10/02 16:58:36;;;;;;;1999.90;999.90;;;;;;;20.21;100.00;101483.97;10336226;28;20062;-72
2023/10/02 17:03:39;;;;;;;1999.90;999.90;;;;;;;20.17;100.00;101489.66;10336219;28;20406;-72
2023/10/02 17:08:42;;;;;;;1999.90;999.90;;;;;;;20.01;100.00;101487.53;10318936;28;20499;-72
2023/10/02 17:13:45;;;;;;;1999.90;999.90;;;;;;;19.79;100.00;101489.38;10319447;28;20047;-72
2023/10/02 17:18:47;;;;;;;1999.90;999.90;;;;;;;19.76;100.00;101488.78;10319148;28;20054;-72
2023/10/02 17:23:50;;;;;;;1999.90;999.90;;;;;;;19.63;100.00;101499.56;10319161;28;20042;-72
2023/10/02 17:28:52;;;;;;;1999.90;999.90;;;;;;;19.52;100.00;101504.94;10335650;28;20149;-73
2023/10/02 17:33:55;;;;;;;1999.90;999.90;;;;;;;19.26;100.00;101500.00;10335868;28;20042;-73
2023/10/02 17:38:58;;;;;;;1999.90;999.90;;;;;;;19.22;100.00;101493.28;10317785;28;20407;-72
2023/10/02 17:44:03;;;;;;;1999.90;999.90;;;;;;;19.14;100.00;101479.81;10335412;28;20046;-72
2023/10/02 17:49:06;;;;;;;1999.90;999.90;;;;;;;19.15;100.00;101471.72;10318350;28;20074;-72
2023/10/02 17:54:09;;;;;;;1999.90;999.90;;;;;;;18.83;100.00;101477.00;10334387;28;20042;-72
2023/10/02 17:59:13;;;;;;;1999.90;999.90;;;;;;;18.77;100.00;101472.19;10317416;28;20420;-72
2023/10/02 18:04:16;;;;;;;1999.90;999.90;;;;;;;18.73;100.00;101484.88;10317728;28;20046;-72
2023/10/02 18:09:19;;;;;;;1999.90;999.90;;;;;;;18.53;100.00;101474.03;10334466;28;20046;-72
2023/10/02 18:14:21;;;;;;;1999.90;999.90;;;;;;;18.46;100.00;101472.88;10334401;28;20133;-72
2023/10/02 18:19:27;;;;;;;1999.90;999.90;;;;;;;18.47;100.00;101476.34;10333914;28;20046;-72
2023/10/02 18:24:30;;;;;;;1999.90;999.90;;;;;;;18.21;100.00;101476.63;10316589;28;20065;-72
2023/10/02 18:29:33;;;;;;;1999.90;999.90;;;;;;;18.19;100.00;101475.91;10333579;28;20393;-72
2023/10/02 18:34:36;;;;;;;1999.90;999.90;;;;;;;18.12;100.00;101469.38;10316726;28;20458;-72
2023/10/02 18:39:47;;;;;;;1999.90;999.90;;;;;;;18.08;100.00;101467.94;10334095;28;20050;-72
2023/10/02 18:44:49;;;;;;;1999.90;999.90;;;;;;;17.95;100.00;101470.72;10333269;28;20137;-72
2023/10/02 18:49:53;;;;;;;1999.90;999.90;;;;;;;17.90;100.00;101470.22;10333293;28;20086;-72
2023/10/02 18:54:56;;;;;;;1999.90;999.90;;;;;;;17.95;100.00;101454.81;10333643;28;20053;-72
2023/10/02 18:59:58;;;;;;;1999.90;999.90;;;;;;;17.93;100.00;101448.78;10333581;28;20074;-72
2023/10/02 19:05:01;;;;;;;1999.90;999.90;;;;;;;17.91;100.00;101438.31;10316311;28;20050;-72
2023/10/02 19:10:03;;;;;;;1999.90;999.90;;;;;;;17.78;100.00;101445.50;10332825;28;20414;-72
2023/10/02 19:15:09;;;;;;;1999.90;999.90;;;;;;;17.75;100.00;101438.66;10316019;28;20053;-72
2023/10/02 19:20:13;;;;;;;1999.90;999.90;;;;;;;17.61;100.00;101429.09;10333298;28;20129;-72
2023/10/02 19:25:16;;;;;;;1999.90;999.90;;;;;;;17.67;100.00;101429.59;10339733;28;20055;-71
2023/10/02 19:30:18;;;;;;;1999.90;999.90;;;;;;;17.60;100.00;101415.97;10322734;28;20129;-71
2023/10/02 19:35:20;;;;;;;1999.90;999.90;;;;;;;17.55;100.00;101420.78;10339685;28;20161;-71
2023/10/02 19:40:23;;;;;;;1999.90;999.90;;;;;;;17.50;100.00;101412.38;10340222;28;20058;-71
2023/10/02 19:45:25;;;;;;;1999.90;999.90;;;;;;;17.38;100.00;101399.13;10339963;28;20125;-71
2023/10/02 19:50:27;;;;;;;1999.90;999.90;;;;;;;17.32;100.00;101388.19;10339146;28;20489;-71
2023/10/02 19:55:31;;;;;;;1999.90;999.90;;;;;;;17.21;100.00;101378.38;10338927;28;20411;-71
2023/10/02 20:00:34;;;;;;;1999.90;999.90;;;;;;;17.22;100.00;101374.81;10338787;28;20443;-71
2023/10/02 20:05:38;;;;;;;1999.90;999.90;;;;;;;17.19;100.00;101359.16;10338582;28;20397;-71
2023/10/02 20:10:41;;;;;;;1999.90;999.90;;;;;;;17.05;100.00;101354.91;10321632;28;20050;-72
2023/10/02 20:15:43;;;;;;;1999.90;999.90;;;;;;;17.20;100.00;101342.34;10338846;28;20053;-72
2023/10/02 20:20:49;;;;;;;1999.90;999.90;;;;;;;17.10;100.00;101344.81;10320882;28;20078;-72
2023/10/02 20:25:52;;;;;;;1999.90;999.90;;;;;;;17.00;100.00;101341.19;10338267;28;20050;-72
2023/10/02 20:30:54;;;;;;;1999.90;999.90;;;;;;;16.96;100.00;101347.66;10321450;28;20054;-72
2023/10/02 20:35:57;;;;;;;1999.90;999.90;;;;;;;16.92;100.00;101339.13;10337376;28;20068;-72
2023/10/02 20:41:00;;;;;;;1999.90;999.90;;;;;;;16.82;100.00;101351.31;10337279;28;20484;-71
2023/10/02 20:46:02;;;;;;;1999.90;999.90;;;;;;;16.86;100.00;101340.44;10337683;28;20047;-72
2023/10/02 20:51:05;;;;;;;1999.90;999.90;;;;;;;16.77;100.00;101338.44;10320014;28;20125;-72
2023/10/02 20:56:07;;;;;;;1999.90;999.90;;;;;;;16.74;100.00;101336.03;10319931;28;20078;-72
2023/10/02 21:01:12;;;;;;;1999.90;999.90;;;;;;;16.60;100.00;101326.50;10336694;28;20462;-72
2023/10/02 21:06:15;;;;;;;1999.90;999.90;;;;;;;16.69;100.00;101336.38;10336882;28;20057;-72
2023/10/02 21:11:18;;;;;;;1999.90;999.90;;;;;;;16.68;100.00;101329.41;10336668;28;20057;-72
2023/10/02 21:16:20;;;;;;;1999.90;999.90;;;;;;;16.67;100.00;101321.59;10337124;28;20085;-72
2023/10/02 21:21:23;;;;;;;1999.90;999.90;;;;;;;16.70;100.00;101303.69;10336269;28;20129;-72
2023/10/02 21:26:27;;;;;;;1999.90;999.90;;;;;;;16.79;100.00;101303.97;10335396;28;20150;-72
2023/10/02 21:31:30;;;;;;;1999.90;999.90;;;;;;;16.54;100.00;101295.22;10319590;28;20050;-72
2023/10/02 21:36:38;;;;;;;1999.90;999.90;;;;;;;16.58;100.00;101275.53;10335645;28;20054;-72
2023/10/02 21:41:42;;;;;;;1999.90;999.90;;;;;;;16.79;100.00;101265.13;10335756;28;20050;-71
2023/10/02 21:46:47;;;;;;;1999.90;999.90;;;;;;;16.75;100.00;101257.56;10317985;28;20050;-71
2023/10/02 21:51:49;;;;;;;1999.90;999.90;;;;;;;16.61;100.00;101253.31;10335197;28;20050;-71
2023/10/02 21:56:52;;;;;;;1999.90;999.90;;;;;;;16.45;100.00;101243.06;10334952;28;20050;-72
2023/10/02 22:01:54;;;;;;;1999.90;999.90;;;;;;;16.43;100.00;101237.06;10334857;28;20054;-72
2023/10/02 22:06:57;;;;;;;1999.90;999.90;;;;;;;16.41;100.00;101233.66;10334189;28;20158;-72
2023/10/02 22:12:02;;;;;;;1999.90;999.90;;;;;;;16.42;100.00;101216.88;10317659;28;20050;-72
2023/10/02 22:17:11;;;;;;;1999.90;999.90;;;;;;;16.32;100.00;101212.28;10334625;28;20109;-72